Update 08.04.19 Menü aufgeräumt und Stützis neue Wetterseite verlinkt
Besuchen Sie den Menüpunkt "Almanach / History" hier gibt es viele interessante Statistiken aus den Daten meiner Wetterstation (seit 2011)
Extrem hohe Temperatur Gültig von: 19-07-2019 23:00 bis: 20-07-2019 22:59 Warnung für: Extrem hohe Temperatur Gefahrenstufe: Gelb info button

Rindlberg West Mehr Informationen Rindlberg West


Stuetzi - Rindlberg Ost Mehr Informationen Stuetzi - Rindlberg Ost


Regenradar Mehr Informationen rain snow radar


Sie finden meine Wetter-Infos auch auf:

Weather Underground

AWEKAS



METAR-Meldungen aus der Umgebung

Warning: A non-numeric value encountered in /home/.sites/50/site8222718/web/weather28/metar/metarDisplay.php on line 166
   
LOWL - Linz
Aktualisierung: 19-07-2019 20:20
Stark bewölkt  
Stark bewölkt  
   Wind: variiert 1.9 km/h
Wind: variiert 1.9 km/h
Temperatur: 25°C
Taupunkt: 12°C
Luftfeuchte: 44%
Luftdruck: 1015 hPa
Wolken: Stark bewölkt
Sichtbarkeit: Mehr als 10 km
Bewölkung: Stark bewölkt 13000 ft
LOWL 191820Z AUTO VRB01KT 9999 BKN130 25/12 Q1015 NOSIG
LOWW - Vienna
Aktualisierung: 19-07-2019 20:20
Klar  
Klar  
   Wind: SW 18.5 km/h
Wind: SW 18.5 km/h
Temperatur: 25°C
Taupunkt: 13°C
Luftfeuchte: 47%
Luftdruck: 1015 hPa
Sichtbarkeit: Mehr als 10 km
Bewölkung: Klar
LOWW 191820Z 22010KT CAVOK 25/13 Q1015 NOSIG
 

Script entwickelt von  Saratoga-weather.org Angepasst für das Template von  Weerstation Leuven